METAR AND TAF INFORMATION
METAR FOR GEML
ADDS - METARS form results

(2319 UTC 04 August 2021)
Data provider http://aviationweather.gov/metar/data/
 
METAR text: GEML 042300Z AUTO 00000KT CAVOK 23/18 Q1016
Conditions at: GEML (MELILLA , ES) observed 2300 UTC 04 August 2021
Temperature: 23.0°C (73°F)
Dewpoint: 18.0°C (64°F) [RH = 73%]
Pressure (altimeter): 30.00 inches Hg (1016.0 mb)
Winds: calm
Visibility: 6 or more miles (10+ km)
Ceiling: ceiling and visibility are OK
Clouds: unknown
Weather: no significant weather observed at this time

METAR text: GEML 042230Z AUTO 00000KT CAVOK 23/17 Q1016
Conditions at: GEML (MELILLA , ES) observed 2230 UTC 04 August 2021
Temperature: 23.0°C (73°F)
Dewpoint: 17.0°C (63°F) [RH = 69%]
Pressure (altimeter): 30.00 inches Hg (1016.0 mb)
Winds: calm
Visibility: 6 or more miles (10+ km)
Ceiling: ceiling and visibility are OK
Clouds: unknown
Weather: no significant weather observed at this time

Forecast for: GEML (MELILLA , ES)
Text: TAF GEML 041700Z 0418/0518 06005KT 9999 FEW015 TX32/0514Z TN22/0505Z
Forecast period: 1800 UTC 04 August 2021 to 0900 UTC 05 August 2021
Forecast type: FROM: standard forecast or significant change
Winds: from the ENE (60 degrees) at 6 MPH (5 knots; 2.6 m/s)
Visibility: 6 or more miles (10+ km)
Ceiling: at least 12,000 feet AGL
Clouds: few clouds at 1500 feet AGL
Weather: no significant weather forecast for this period
Text: BECMG 0509/0511 27010KT
Forecast period: 0900 to 1800 UTC 05 August 2021
Forecast type: BECOMING: Conditions expected to become as follows by 1100 UTC 05 August 2021
Winds: from the W (270 degrees) at 12 MPH (10 knots; 5.1 m/s)
Visibility: 6 or more miles (10+ km)
Ceiling: at least 12,000 feet AGL
Clouds: few clouds at 1500 feet AGL
Weather: no significant weather forecast for this period

 AIRPORT MAP

 RUNWAY INFORMATION
Runway 15 Runway length 4685 ft Runway width 148 ft
Runway elevation 156 ft Runway displaced threshold 755 ft Runway heading 146
Runway 33 Runway length 4685 ft Runway width 148 ft
Runway elevation 133 ft Runway displaced threshold 0 ft Runway heading 326

 AIRPORT FREQUENCIES
Type GND Name GND Frequency 121.7 MHZ
Type TWR Name TWR Frequency 118.5 MHZ

 AIRPORT NEAR NAVIGATION AIDS
Type VOR-DME Name Melilla Frequency 114250 KHZ
Type DME Name Melilla Frequency 117400 KHZ





Powered by Virtual Airlines Manager

Maps by Rafael Santos